sensor_id;sensor_type;location;lat;lon;timestamp;P1;durP1;ratioP1;P2;durP2;ratioP2
70558;SDS011;58108;48.094;11.838;2023-03-03T00:00:26;43.57;;;11.87;;
70558;SDS011;58108;48.094;11.838;2023-03-03T00:02:52;20.93;;;5.60;;
70558;SDS011;58108;48.094;11.838;2023-03-03T00:05:17;41.80;;;11.82;;
70558;SDS011;58108;48.094;11.838;2023-03-03T00:07:43;42.63;;;11.47;;
70558;SDS011;58108;48.094;11.838;2023-03-03T00:10:09;37.42;;;10.20;;
70558;SDS011;58108;48.094;11.838;2023-03-03T00:12:34;39.77;;;11.80;;
70558;SDS011;58108;48.094;11.838;2023-03-03T00:14:59;42.13;;;11.53;;
70558;SDS011;58108;48.094;11.838;2023-03-03T00:17:26;48.13;;;12.43;;
70558;SDS011;58108;48.094;11.838;2023-03-03T00:19:52;45.30;;;12.32;;
70558;SDS011;58108;48.094;11.838;2023-03-03T00:22:35;33.87;;;9.80;;
70558;SDS011;58108;48.094;11.838;2023-03-03T00:25:24;42.17;;;11.73;;
70558;SDS011;58108;48.094;11.838;2023-03-03T00:27:52;37.00;;;11.77;;
70558;SDS011;58108;48.094;11.838;2023-03-03T00:30:22;39.00;;;10.53;;
70558;SDS011;58108;48.094;11.838;2023-03-03T00:32:49;35.80;;;11.02;;
70558;SDS011;58108;48.094;11.838;2023-03-03T00:35:28;40.97;;;12.87;;
70558;SDS011;58108;48.094;11.838;2023-03-03T00:38:17;41.72;;;10.80;;
70558;SDS011;58108;48.094;11.838;2023-03-03T00:40:43;40.90;;;11.83;;
70558;SDS011;58108;48.094;11.838;2023-03-03T00:43:27;36.83;;;11.73;;
70558;SDS011;58108;48.094;11.838;2023-03-03T00:45:56;38.03;;;10.33;;
70558;SDS011;58108;48.094;11.838;2023-03-03T00:48:39;39.45;;;11.85;;
70558;SDS011;58108;48.094;11.838;2023-03-03T00:51:10;39.70;;;10.77;;
70558;SDS011;58108;48.094;11.838;2023-03-03T00:53:38;42.17;;;9.93;;
70558;SDS011;58108;48.094;11.838;2023-03-03T00:56:03;41.80;;;12.03;;
70558;SDS011;58108;48.094;11.838;2023-03-03T00:58:29;47.90;;;12.43;;
70558;SDS011;58108;48.094;11.838;2023-03-03T01:00:55;40.20;;;12.35;;
70558;SDS011;58108;48.094;11.838;2023-03-03T01:03:23;41.25;;;11.38;;
70558;SDS011;58108;48.094;11.838;2023-03-03T01:05:49;44.15;;;12.82;;
70558;SDS011;58108;48.094;11.838;2023-03-03T01:08:15;40.70;;;12.47;;
70558;SDS011;58108;48.094;11.838;2023-03-03T01:10:41;44.55;;;12.52;;
70558;SDS011;58108;48.094;11.838;2023-03-03T01:13:08;46.63;;;12.63;;
70558;SDS011;58108;48.094;11.838;2023-03-03T01:15:34;38.30;;;10.40;;
70558;SDS011;58108;48.094;11.838;2023-03-03T01:17:59;42.10;;;12.10;;
70558;SDS011;58108;48.094;11.838;2023-03-03T01:20:24;43.03;;;12.13;;
70558;SDS011;58108;48.094;11.838;2023-03-03T01:22:49;40.60;;;11.23;;
70558;SDS011;58108;48.094;11.838;2023-03-03T01:25:14;44.37;;;11.53;;
70558;SDS011;58108;48.094;11.838;2023-03-03T01:27:40;38.20;;;11.87;;
70558;SDS011;58108;48.094;11.838;2023-03-03T01:30:05;45.50;;;12.40;;
70558;SDS011;58108;48.094;11.838;2023-03-03T01:32:31;37.88;;;10.90;;
70558;SDS011;58108;48.094;11.838;2023-03-03T01:34:56;40.47;;;11.77;;
70558;SDS011;58108;48.094;11.838;2023-03-03T01:37:21;45.50;;;12.37;;
70558;SDS011;58108;48.094;11.838;2023-03-03T01:39:47;41.80;;;10.53;;
70558;SDS011;58108;48.094;11.838;2023-03-03T01:42:13;45.07;;;11.83;;
70558;SDS011;58108;48.094;11.838;2023-03-03T01:44:39;35.80;;;10.38;;
70558;SDS011;58108;48.094;11.838;2023-03-03T01:47:12;36.80;;;10.63;;
70558;SDS011;58108;48.094;11.838;2023-03-03T01:49:40;34.47;;;11.00;;
70558;SDS011;58108;48.094;11.838;2023-03-03T01:52:09;37.78;;;11.15;;
70558;SDS011;58108;48.094;11.838;2023-03-03T01:54:37;37.70;;;10.95;;
70558;SDS011;58108;48.094;11.838;2023-03-03T01:57:05;40.40;;;11.00;;
70558;SDS011;58108;48.094;11.838;2023-03-03T01:59:33;38.10;;;11.23;;
70558;SDS011;58108;48.094;11.838;2023-03-03T02:01:59;39.17;;;11.50;;
70558;SDS011;58108;48.094;11.838;2023-03-03T02:04:24;39.80;;;11.10;;
70558;SDS011;58108;48.094;11.838;2023-03-03T02:06:51;40.03;;;11.23;;
70558;SDS011;58108;48.094;11.838;2023-03-03T02:11:43;40.30;;;11.17;;
70558;SDS011;58108;48.094;11.838;2023-03-03T02:14:10;35.33;;;10.85;;
70558;SDS011;58108;48.094;11.838;2023-03-03T02:16:35;36.80;;;10.77;;
70558;SDS011;58108;48.094;11.838;2023-03-03T02:19:00;37.30;;;10.90;;
70558;SDS011;58108;48.094;11.838;2023-03-03T02:21:26;38.07;;;11.07;;
70558;SDS011;58108;48.094;11.838;2023-03-03T02:26:36;39.75;;;11.88;;
70558;SDS011;58108;48.094;11.838;2023-03-03T02:29:03;40.92;;;11.70;;
70558;SDS011;58108;48.094;11.838;2023-03-03T02:31:28;42.97;;;11.13;;
70558;SDS011;58108;48.094;11.838;2023-03-03T02:33:54;38.27;;;11.03;;
70558;SDS011;58108;48.094;11.838;2023-03-03T02:36:20;40.05;;;12.25;;
70558;SDS011;58108;48.094;11.838;2023-03-03T02:46:27;34.80;;;10.15;;
70558;SDS011;58108;48.094;11.838;2023-03-03T02:48:55;34.95;;;10.50;;
70558;SDS011;58108;48.094;11.838;2023-03-03T02:51:20;33.87;;;10.20;;
70558;SDS011;58108;48.094;11.838;2023-03-03T02:53:46;35.47;;;10.70;;
70558;SDS011;58108;48.094;11.838;2023-03-03T02:56:11;41.67;;;10.10;;
70558;SDS011;58108;48.094;11.838;2023-03-03T02:58:36;41.67;;;11.57;;
70558;SDS011;58108;48.094;11.838;2023-03-03T03:01:01;37.38;;;10.23;;
70558;SDS011;58108;48.094;11.838;2023-03-03T03:03:27;35.60;;;10.43;;
70558;SDS011;58108;48.094;11.838;2023-03-03T03:05:52;39.57;;;11.10;;
70558;SDS011;58108;48.094;11.838;2023-03-03T03:08:17;35.33;;;10.57;;
70558;SDS011;58108;48.094;11.838;2023-03-03T03:10:42;37.97;;;10.20;;
70558;SDS011;58108;48.094;11.838;2023-03-03T03:13:08;39.57;;;11.53;;
70558;SDS011;58108;48.094;11.838;2023-03-03T03:15:34;36.50;;;10.20;;
70558;SDS011;58108;48.094;11.838;2023-03-03T03:17:59;37.17;;;10.33;;
70558;SDS011;58108;48.094;11.838;2023-03-03T03:20:24;38.65;;;10.50;;
70558;SDS011;58108;48.094;11.838;2023-03-03T03:22:49;33.42;;;9.75;;
70558;SDS011;58108;48.094;11.838;2023-03-03T03:25:15;33.30;;;9.60;;
70558;SDS011;58108;48.094;11.838;2023-03-03T03:27:40;31.80;;;9.67;;
70558;SDS011;58108;48.094;11.838;2023-03-03T03:30:05;38.63;;;11.18;;
70558;SDS011;58108;48.094;11.838;2023-03-03T03:32:30;34.38;;;10.05;;
70558;SDS011;58108;48.094;11.838;2023-03-03T03:34:56;37.57;;;10.87;;
70558;SDS011;58108;48.094;11.838;2023-03-03T03:37:21;34.10;;;10.20;;
70558;SDS011;58108;48.094;11.838;2023-03-03T03:39:46;37.95;;;10.15;;
70558;SDS011;58108;48.094;11.838;2023-03-03T03:42:11;37.73;;;10.10;;
70558;SDS011;58108;48.094;11.838;2023-03-03T03:44:36;34.13;;;10.23;;
70558;SDS011;58108;48.094;11.838;2023-03-03T03:47:02;33.90;;;9.73;;
70558;SDS011;58108;48.094;11.838;2023-03-03T03:49:27;39.47;;;10.60;;
70558;SDS011;58108;48.094;11.838;2023-03-03T03:51:52;39.40;;;10.33;;
70558;SDS011;58108;48.094;11.838;2023-03-03T03:54:17;43.77;;;10.93;;
70558;SDS011;58108;48.094;11.838;2023-03-03T03:56:42;33.47;;;9.93;;
70558;SDS011;58108;48.094;11.838;2023-03-03T03:59:08;29.37;;;9.03;;
70558;SDS011;58108;48.094;11.838;2023-03-03T04:01:33;31.00;;;9.45;;
70558;SDS011;58108;48.094;11.838;2023-03-03T04:03:58;34.50;;;10.17;;
70558;SDS011;58108;48.094;11.838;2023-03-03T04:06:24;38.35;;;10.38;;
70558;SDS011;58108;48.094;11.838;2023-03-03T04:08:49;34.10;;;9.63;;
70558;SDS011;58108;48.094;11.838;2023-03-03T04:11:14;39.07;;;12.27;;
70558;SDS011;58108;48.094;11.838;2023-03-03T04:13:40;32.97;;;10.03;;
70558;SDS011;58108;48.094;11.838;2023-03-03T04:16:05;35.30;;;9.90;;
70558;SDS011;58108;48.094;11.838;2023-03-03T04:18:30;34.30;;;9.77;;
70558;SDS011;58108;48.094;11.838;2023-03-03T04:20:56;39.97;;;12.07;;
70558;SDS011;58108;48.094;11.838;2023-03-03T04:23:21;39.50;;;11.57;;
70558;SDS011;58108;48.094;11.838;2023-03-03T04:25:46;37.85;;;11.50;;
70558;SDS011;58108;48.094;11.838;2023-03-03T04:28:13;34.60;;;11.23;;
70558;SDS011;58108;48.094;11.838;2023-03-03T04:30:38;40.80;;;11.50;;
70558;SDS011;58108;48.094;11.838;2023-03-03T04:33:03;36.40;;;10.07;;
70558;SDS011;58108;48.094;11.838;2023-03-03T04:35:28;35.63;;;10.47;;
70558;SDS011;58108;48.094;11.838;2023-03-03T04:37:53;37.17;;;10.53;;
70558;SDS011;58108;48.094;11.838;2023-03-03T04:40:19;38.23;;;11.00;;
70558;SDS011;58108;48.094;11.838;2023-03-03T04:42:44;32.93;;;11.13;;
70558;SDS011;58108;48.094;11.838;2023-03-03T04:45:09;39.57;;;11.40;;
70558;SDS011;58108;48.094;11.838;2023-03-03T04:47:35;34.63;;;10.60;;
70558;SDS011;58108;48.094;11.838;2023-03-03T04:50:00;33.97;;;8.80;;
70558;SDS011;58108;48.094;11.838;2023-03-03T04:52:25;23.80;;;7.13;;
70558;SDS011;58108;48.094;11.838;2023-03-03T04:54:50;39.07;;;10.67;;
70558;SDS011;58108;48.094;11.838;2023-03-03T04:57:15;37.37;;;10.93;;
70558;SDS011;58108;48.094;11.838;2023-03-03T04:59:41;34.40;;;10.50;;
70558;SDS011;58108;48.094;11.838;2023-03-03T05:02:06;40.07;;;11.80;;
70558;SDS011;58108;48.094;11.838;2023-03-03T05:04:31;35.43;;;10.03;;
70558;SDS011;58108;48.094;11.838;2023-03-03T05:06:56;24.03;;;7.40;;
70558;SDS011;58108;48.094;11.838;2023-03-03T05:09:22;39.13;;;11.77;;
70558;SDS011;58108;48.094;11.838;2023-03-03T05:11:47;43.07;;;11.93;;
70558;SDS011;58108;48.094;11.838;2023-03-03T05:14:12;40.00;;;11.80;;
70558;SDS011;58108;48.094;11.838;2023-03-03T05:16:37;37.17;;;10.50;;
70558;SDS011;58108;48.094;11.838;2023-03-03T05:19:03;29.73;;;8.50;;
70558;SDS011;58108;48.094;11.838;2023-03-03T05:21:28;37.40;;;10.53;;
70558;SDS011;58108;48.094;11.838;2023-03-03T05:23:53;34.90;;;10.77;;
70558;SDS011;58108;48.094;11.838;2023-03-03T05:26:18;35.63;;;11.00;;
70558;SDS011;58108;48.094;11.838;2023-03-03T05:28:43;37.30;;;10.40;;
70558;SDS011;58108;48.094;11.838;2023-03-03T05:31:09;38.80;;;11.17;;
70558;SDS011;58108;48.094;11.838;2023-03-03T05:33:34;39.30;;;10.73;;
70558;SDS011;58108;48.094;11.838;2023-03-03T05:35:59;35.60;;;10.47;;
70558;SDS011;58108;48.094;11.838;2023-03-03T05:38:24;34.70;;;11.10;;
70558;SDS011;58108;48.094;11.838;2023-03-03T05:40:49;31.27;;;9.27;;
70558;SDS011;58108;48.094;11.838;2023-03-03T05:43:15;32.90;;;10.38;;
70558;SDS011;58108;48.094;11.838;2023-03-03T05:45:40;32.13;;;10.77;;
70558;SDS011;58108;48.094;11.838;2023-03-03T05:48:05;35.80;;;10.83;;
70558;SDS011;58108;48.094;11.838;2023-03-03T05:50:31;37.93;;;11.20;;
70558;SDS011;58108;48.094;11.838;2023-03-03T05:52:56;40.33;;;11.80;;
70558;SDS011;58108;48.094;11.838;2023-03-03T05:55:21;44.67;;;13.43;;
70558;SDS011;58108;48.094;11.838;2023-03-03T05:57:46;38.47;;;12.17;;
70558;SDS011;58108;48.094;11.838;2023-03-03T06:00:12;46.60;;;13.43;;
70558;SDS011;58108;48.094;11.838;2023-03-03T06:02:38;40.10;;;11.73;;
70558;SDS011;58108;48.094;11.838;2023-03-03T06:05:03;43.10;;;12.50;;
70558;SDS011;58108;48.094;11.838;2023-03-03T06:07:29;42.23;;;12.67;;
70558;SDS011;58108;48.094;11.838;2023-03-03T06:09:54;30.70;;;8.67;;
70558;SDS011;58108;48.094;11.838;2023-03-03T06:12:19;38.80;;;11.00;;
70558;SDS011;58108;48.094;11.838;2023-03-03T06:14:44;36.90;;;10.90;;
70558;SDS011;58108;48.094;11.838;2023-03-03T06:17:09;40.53;;;12.17;;
70558;SDS011;58108;48.094;11.838;2023-03-03T06:19:35;38.83;;;10.87;;
70558;SDS011;58108;48.094;11.838;2023-03-03T06:22:00;34.28;;;11.10;;
70558;SDS011;58108;48.094;11.838;2023-03-03T06:24:26;37.67;;;11.00;;
70558;SDS011;58108;48.094;11.838;2023-03-03T06:26:54;36.05;;;11.30;;
70558;SDS011;58108;48.094;11.838;2023-03-03T06:29:19;37.50;;;11.52;;
70558;SDS011;58108;48.094;11.838;2023-03-03T06:31:45;36.90;;;11.47;;
70558;SDS011;58108;48.094;11.838;2023-03-03T06:34:10;43.05;;;12.85;;
70558;SDS011;58108;48.094;11.838;2023-03-03T06:36:35;37.20;;;11.57;;
70558;SDS011;58108;48.094;11.838;2023-03-03T06:39:00;41.83;;;11.57;;
70558;SDS011;58108;48.094;11.838;2023-03-03T06:41:26;38.23;;;11.53;;
70558;SDS011;58108;48.094;11.838;2023-03-03T06:43:51;39.40;;;12.90;;
70558;SDS011;58108;48.094;11.838;2023-03-03T06:46:16;29.43;;;9.53;;
70558;SDS011;58108;48.094;11.838;2023-03-03T06:48:41;31.97;;;9.70;;
70558;SDS011;58108;48.094;11.838;2023-03-03T06:51:13;34.50;;;10.57;;
70558;SDS011;58108;48.094;11.838;2023-03-03T06:53:40;39.73;;;12.10;;
70558;SDS011;58108;48.094;11.838;2023-03-03T06:56:07;39.07;;;12.00;;
70558;SDS011;58108;48.094;11.838;2023-03-03T06:58:33;37.47;;;11.38;;
70558;SDS011;58108;48.094;11.838;2023-03-03T07:01:00;39.78;;;12.07;;
70558;SDS011;58108;48.094;11.838;2023-03-03T07:03:34;44.40;;;14.63;;
70558;SDS011;58108;48.094;11.838;2023-03-03T07:06:00;46.50;;;12.65;;
70558;SDS011;58108;48.094;11.838;2023-03-03T07:08:26;44.73;;;12.67;;
70558;SDS011;58108;48.094;11.838;2023-03-03T07:10:53;42.83;;;13.57;;
70558;SDS011;58108;48.094;11.838;2023-03-03T07:13:26;40.63;;;12.50;;
70558;SDS011;58108;48.094;11.838;2023-03-03T07:15:52;36.08;;;11.70;;
70558;SDS011;58108;48.094;11.838;2023-03-03T07:20:45;36.70;;;11.55;;
70558;SDS011;58108;48.094;11.838;2023-03-03T07:23:14;39.67;;;12.00;;
70558;SDS011;58108;48.094;11.838;2023-03-03T07:25:42;39.60;;;12.18;;
70558;SDS011;58108;48.094;11.838;2023-03-03T07:28:12;39.92;;;12.07;;
70558;SDS011;58108;48.094;11.838;2023-03-03T07:30:40;38.13;;;11.80;;
70558;SDS011;58108;48.094;11.838;2023-03-03T07:33:07;41.10;;;12.23;;
70558;SDS011;58108;48.094;11.838;2023-03-03T07:35:44;43.28;;;12.88;;
70558;SDS011;58108;48.094;11.838;2023-03-03T07:38:22;50.60;;;13.20;;
70558;SDS011;58108;48.094;11.838;2023-03-03T07:40:53;42.67;;;12.53;;
70558;SDS011;58108;48.094;11.838;2023-03-03T07:43:27;37.97;;;13.30;;
70558;SDS011;58108;48.094;11.838;2023-03-03T07:45:58;33.15;;;10.05;;
70558;SDS011;58108;48.094;11.838;2023-03-03T07:48:29;40.72;;;12.85;;
70558;SDS011;58108;48.094;11.838;2023-03-03T07:50:56;39.75;;;12.88;;
70558;SDS011;58108;48.094;11.838;2023-03-03T07:53:25;40.00;;;12.27;;
70558;SDS011;58108;48.094;11.838;2023-03-03T07:55:51;41.38;;;12.50;;
70558;SDS011;58108;48.094;11.838;2023-03-03T07:58:19;35.80;;;10.80;;
70558;SDS011;58108;48.094;11.838;2023-03-03T08:03:29;39.08;;;11.80;;
70558;SDS011;58108;48.094;11.838;2023-03-03T08:05:55;28.67;;;8.63;;
70558;SDS011;58108;48.094;11.838;2023-03-03T08:10:53;36.67;;;11.73;;
70558;SDS011;58108;48.094;11.838;2023-03-03T08:13:20;21.55;;;6.25;;
70558;SDS011;58108;48.094;11.838;2023-03-03T08:15:47;23.52;;;7.38;;
70558;SDS011;58108;48.094;11.838;2023-03-03T08:18:47;25.88;;;8.70;;
70558;SDS011;58108;48.094;11.838;2023-03-03T08:21:06;37.60;;;11.00;;
70558;SDS011;58108;48.094;11.838;2023-03-03T08:23:32;41.27;;;13.27;;
70558;SDS011;58108;48.094;11.838;2023-03-03T08:25:58;41.05;;;13.23;;
70558;SDS011;58108;48.094;11.838;2023-03-03T08:28:23;31.23;;;9.37;;
70558;SDS011;58108;48.094;11.838;2023-03-03T08:30:48;42.60;;;13.27;;
70558;SDS011;58108;48.094;11.838;2023-03-03T08:33:14;27.20;;;10.10;;
70558;SDS011;58108;48.094;11.838;2023-03-03T08:35:39;45.23;;;13.83;;
70558;SDS011;58108;48.094;11.838;2023-03-03T08:38:05;40.23;;;13.13;;
70558;SDS011;58108;48.094;11.838;2023-03-03T08:40:30;43.07;;;13.30;;
70558;SDS011;58108;48.094;11.838;2023-03-03T08:42:56;41.78;;;13.40;;
70558;SDS011;58108;48.094;11.838;2023-03-03T08:45:22;31.90;;;9.37;;
70558;SDS011;58108;48.094;11.838;2023-03-03T08:47:47;36.08;;;12.73;;
70558;SDS011;58108;48.094;11.838;2023-03-03T08:50:13;37.43;;;12.43;;
70558;SDS011;58108;48.094;11.838;2023-03-03T08:52:39;45.50;;;15.30;;
70558;SDS011;58108;48.094;11.838;2023-03-03T08:55:04;48.10;;;15.10;;
70558;SDS011;58108;48.094;11.838;2023-03-03T08:57:29;47.77;;;14.77;;
70558;SDS011;58108;48.094;11.838;2023-03-03T08:59:54;46.53;;;14.80;;
70558;SDS011;58108;48.094;11.838;2023-03-03T09:02:20;44.43;;;14.07;;
70558;SDS011;58108;48.094;11.838;2023-03-03T09:04:45;46.67;;;13.23;;
70558;SDS011;58108;48.094;11.838;2023-03-03T09:07:10;23.90;;;8.17;;
70558;SDS011;58108;48.094;11.838;2023-03-03T09:09:35;43.93;;;13.97;;
70558;SDS011;58108;48.094;11.838;2023-03-03T09:12:05;49.67;;;16.27;;
70558;SDS011;58108;48.094;11.838;2023-03-03T09:14:31;42.50;;;12.98;;
70558;SDS011;58108;48.094;11.838;2023-03-03T09:16:56;43.60;;;13.47;;
70558;SDS011;58108;48.094;11.838;2023-03-03T09:19:26;42.30;;;13.10;;
70558;SDS011;58108;48.094;11.838;2023-03-03T09:21:52;47.58;;;14.68;;
70558;SDS011;58108;48.094;11.838;2023-03-03T09:24:27;48.30;;;14.30;;
70558;SDS011;58108;48.094;11.838;2023-03-03T09:26:53;46.40;;;13.45;;
70558;SDS011;58108;48.094;11.838;2023-03-03T09:29:23;27.58;;;10.30;;
70558;SDS011;58108;48.094;11.838;2023-03-03T09:31:50;43.90;;;14.40;;
70558;SDS011;58108;48.094;11.838;2023-03-03T09:36:44;51.03;;;15.82;;
70558;SDS011;58108;48.094;11.838;2023-03-03T09:39:26;50.07;;;15.77;;
70558;SDS011;58108;48.094;11.838;2023-03-03T09:47:19;44.17;;;14.50;;
70558;SDS011;58108;48.094;11.838;2023-03-03T09:49:57;52.10;;;16.13;;
70558;SDS011;58108;48.094;11.838;2023-03-03T10:00:21;47.63;;;14.67;;
70558;SDS011;58108;48.094;11.838;2023-03-03T10:05:38;48.60;;;16.92;;
70558;SDS011;58108;48.094;11.838;2023-03-03T10:08:11;33.78;;;10.18;;
70558;SDS011;58108;48.094;11.838;2023-03-03T10:10:55;47.45;;;15.75;;
70558;SDS011;58108;48.094;11.838;2023-03-03T10:13:33;49.43;;;16.10;;
70558;SDS011;58108;48.094;11.838;2023-03-03T10:18:38;52.50;;;16.27;;
70558;SDS011;58108;48.094;11.838;2023-03-03T10:21:09;32.13;;;10.35;;
70558;SDS011;58108;48.094;11.838;2023-03-03T10:28:42;54.80;;;17.05;;
70558;SDS011;58108;48.094;11.838;2023-03-03T10:42:25;47.80;;;14.40;;
70558;SDS011;58108;48.094;11.838;2023-03-03T10:52:02;53.92;;;17.42;;
70558;SDS011;58108;48.094;11.838;2023-03-03T11:02:09;33.45;;;10.88;;
70558;SDS011;58108;48.094;11.838;2023-03-03T11:10:10;50.20;;;16.93;;
70558;SDS011;58108;48.094;11.838;2023-03-03T11:12:45;37.97;;;12.75;;
70558;SDS011;58108;48.094;11.838;2023-03-03T11:15:18;46.40;;;16.67;;
70558;SDS011;58108;48.094;11.838;2023-03-03T11:17:50;54.50;;;17.52;;
70558;SDS011;58108;48.094;11.838;2023-03-03T11:22:46;51.80;;;18.70;;
70558;SDS011;58108;48.094;11.838;2023-03-03T11:25:20;51.55;;;18.27;;
70558;SDS011;58108;48.094;11.838;2023-03-03T11:40:26;49.63;;;17.48;;
70558;SDS011;58108;48.094;11.838;2023-03-03T11:45:41;41.20;;;15.00;;
70558;SDS011;58108;48.094;11.838;2023-03-03T11:48:16;50.93;;;16.97;;
70558;SDS011;58108;48.094;11.838;2023-03-03T11:50:48;50.85;;;17.73;;
70558;SDS011;58108;48.094;11.838;2023-03-03T11:53:25;48.00;;;16.92;;
70558;SDS011;58108;48.094;11.838;2023-03-03T11:55:58;50.40;;;17.35;;
70558;SDS011;58108;48.094;11.838;2023-03-03T11:58:30;48.60;;;17.75;;
70558;SDS011;58108;48.094;11.838;2023-03-03T12:01:01;46.50;;;18.00;;
70558;SDS011;58108;48.094;11.838;2023-03-03T12:03:41;34.67;;;14.27;;
70558;SDS011;58108;48.094;11.838;2023-03-03T12:06:20;34.53;;;14.45;;
70558;SDS011;58108;48.094;11.838;2023-03-03T12:11:20;50.47;;;15.77;;
70558;SDS011;58108;48.094;11.838;2023-03-03T12:14:10;45.43;;;17.13;;
70558;SDS011;58108;48.094;11.838;2023-03-03T12:16:50;48.83;;;17.27;;
70558;SDS011;58108;48.094;11.838;2023-03-03T12:24:41;45.38;;;16.63;;
70558;SDS011;58108;48.094;11.838;2023-03-03T12:32:14;46.28;;;18.48;;
70558;SDS011;58108;48.094;11.838;2023-03-03T12:47:32;42.23;;;16.00;;
70558;SDS011;58108;48.094;11.838;2023-03-03T12:50:06;45.58;;;16.83;;
70558;SDS011;58108;48.094;11.838;2023-03-03T13:00:35;48.00;;;17.73;;
70558;SDS011;58108;48.094;11.838;2023-03-03T13:13:45;42.17;;;16.63;;
70558;SDS011;58108;48.094;11.838;2023-03-03T13:16:12;50.17;;;18.58;;
70558;SDS011;58108;48.094;11.838;2023-03-03T13:23:43;51.33;;;18.40;;
70558;SDS011;58108;48.094;11.838;2023-03-03T13:26:57;46.80;;;17.65;;
70558;SDS011;58108;48.094;11.838;2023-03-03T13:31:25;53.10;;;18.98;;
70558;SDS011;58108;48.094;11.838;2023-03-03T13:33:57;48.72;;;18.00;;
70558;SDS011;58108;48.094;11.838;2023-03-03T13:36:24;49.53;;;19.77;;
70558;SDS011;58108;48.094;11.838;2023-03-03T13:38:55;44.92;;;18.00;;
70558;SDS011;58108;48.094;11.838;2023-03-03T13:41:27;46.25;;;18.52;;
70558;SDS011;58108;48.094;11.838;2023-03-03T13:46:31;31.67;;;12.02;;
70558;SDS011;58108;48.094;11.838;2023-03-03T13:49:01;44.60;;;18.30;;
70558;SDS011;58108;48.094;11.838;2023-03-03T13:51:48;39.78;;;17.15;;
70558;SDS011;58108;48.094;11.838;2023-03-03T13:57:43;41.03;;;17.42;;
70558;SDS011;58108;48.094;11.838;2023-03-03T14:03:18;42.38;;;19.50;;
70558;SDS011;58108;48.094;11.838;2023-03-03T14:05:21;40.90;;;18.63;;
70558;SDS011;58108;48.094;11.838;2023-03-03T14:07:52;41.00;;;17.52;;
70558;SDS011;58108;48.094;11.838;2023-03-03T14:13:02;42.55;;;18.90;;
70558;SDS011;58108;48.094;11.838;2023-03-03T14:15:37;39.70;;;18.83;;
70558;SDS011;58108;48.094;11.838;2023-03-03T14:20:40;41.40;;;18.75;;
70558;SDS011;58108;48.094;11.838;2023-03-03T14:25:50;38.45;;;17.70;;
70558;SDS011;58108;48.094;11.838;2023-03-03T14:28:15;37.83;;;18.75;;
70558;SDS011;58108;48.094;11.838;2023-03-03T14:30:42;38.23;;;19.20;;
70558;SDS011;58108;48.094;11.838;2023-03-03T14:38:02;42.47;;;19.00;;
70558;SDS011;58108;48.094;11.838;2023-03-03T14:40:31;39.92;;;19.20;;
70558;SDS011;58108;48.094;11.838;2023-03-03T14:42:58;44.17;;;19.42;;
70558;SDS011;58108;48.094;11.838;2023-03-03T14:48:00;37.42;;;18.08;;
70558;SDS011;58108;48.094;11.838;2023-03-03T14:50:40;42.35;;;20.60;;
70558;SDS011;58108;48.094;11.838;2023-03-03T14:55:32;39.27;;;18.33;;
70558;SDS011;58108;48.094;11.838;2023-03-03T14:57:59;41.90;;;20.08;;
70558;SDS011;58108;48.094;11.838;2023-03-03T15:00:28;46.80;;;20.27;;
70558;SDS011;58108;48.094;11.838;2023-03-03T15:03:04;39.63;;;18.90;;
70558;SDS011;58108;48.094;11.838;2023-03-03T15:05:47;46.67;;;18.38;;
70558;SDS011;58108;48.094;11.838;2023-03-03T15:08:13;39.30;;;17.67;;
70558;SDS011;58108;48.094;11.838;2023-03-03T15:10:40;41.83;;;19.23;;
70558;SDS011;58108;48.094;11.838;2023-03-03T15:15:48;43.97;;;18.20;;
70558;SDS011;58108;48.094;11.838;2023-03-03T15:18:15;38.90;;;17.00;;
70558;SDS011;58108;48.094;11.838;2023-03-03T15:20:41;40.25;;;16.30;;
70558;SDS011;58108;48.094;11.838;2023-03-03T15:25:44;44.70;;;18.83;;
70558;SDS011;58108;48.094;11.838;2023-03-03T15:30:38;40.20;;;15.38;;
70558;SDS011;58108;48.094;11.838;2023-03-03T15:35:51;35.10;;;14.95;;
70558;SDS011;58108;48.094;11.838;2023-03-03T15:38:24;40.33;;;16.80;;
70558;SDS011;58108;48.094;11.838;2023-03-03T15:40:54;35.95;;;14.90;;
70558;SDS011;58108;48.094;11.838;2023-03-03T15:56:18;36.95;;;15.45;;
70558;SDS011;58108;48.094;11.838;2023-03-03T16:06:25;54.57;;;23.00;;
70558;SDS011;58108;48.094;11.838;2023-03-03T16:11:44;45.67;;;18.77;;
70558;SDS011;58108;48.094;11.838;2023-03-03T16:14:33;41.00;;;15.93;;
70558;SDS011;58108;48.094;11.838;2023-03-03T16:19:55;35.50;;;14.00;;
70558;SDS011;58108;48.094;11.838;2023-03-03T16:22:33;34.15;;;14.32;;
70558;SDS011;58108;48.094;11.838;2023-03-03T16:25:06;50.22;;;20.67;;
70558;SDS011;58108;48.094;11.838;2023-03-03T16:27:50;55.58;;;23.42;;
70558;SDS011;58108;48.094;11.838;2023-03-03T16:32:49;53.43;;;22.87;;
70558;SDS011;58108;48.094;11.838;2023-03-03T16:35:22;45.28;;;18.95;;
70558;SDS011;58108;48.094;11.838;2023-03-03T16:37:58;54.20;;;22.20;;
70558;SDS011;58108;48.094;11.838;2023-03-03T16:40:31;47.88;;;21.08;;
70558;SDS011;58108;48.094;11.838;2023-03-03T16:45:42;43.28;;;19.05;;
70558;SDS011;58108;48.094;11.838;2023-03-03T16:56:13;42.83;;;16.55;;
70558;SDS011;58108;48.094;11.838;2023-03-03T17:04:20;42.92;;;15.70;;
70558;SDS011;58108;48.094;11.838;2023-03-03T17:06:54;39.47;;;15.32;;
70558;SDS011;58108;48.094;11.838;2023-03-03T17:09:33;39.08;;;15.82;;
70558;SDS011;58108;48.094;11.838;2023-03-03T17:17:25;43.33;;;15.75;;
70558;SDS011;58108;48.094;11.838;2023-03-03T17:20:10;43.92;;;15.60;;
70558;SDS011;58108;48.094;11.838;2023-03-03T17:27:40;39.80;;;15.00;;
70558;SDS011;58108;48.094;11.838;2023-03-03T17:30:13;46.67;;;16.35;;
70558;SDS011;58108;48.094;11.838;2023-03-03T17:32:47;40.35;;;14.52;;
70558;SDS011;58108;48.094;11.838;2023-03-03T17:45:21;39.53;;;14.60;;
70558;SDS011;58108;48.094;11.838;2023-03-03T17:50:25;42.20;;;15.00;;
70558;SDS011;58108;48.094;11.838;2023-03-03T18:00:52;42.47;;;16.20;;
70558;SDS011;58108;48.094;11.838;2023-03-03T18:08:39;45.42;;;16.40;;
70558;SDS011;58108;48.094;11.838;2023-03-03T18:24:29;44.72;;;15.85;;
70558;SDS011;58108;48.094;11.838;2023-03-03T18:27:12;45.70;;;15.85;;
70558;SDS011;58108;48.094;11.838;2023-03-03T18:29:37;43.60;;;15.02;;
70558;SDS011;58108;48.094;11.838;2023-03-03T18:32:04;37.23;;;14.60;;
70558;SDS011;58108;48.094;11.838;2023-03-03T18:34:40;37.38;;;14.95;;
70558;SDS011;58108;48.094;11.838;2023-03-03T18:39:37;37.22;;;14.05;;
70558;SDS011;58108;48.094;11.838;2023-03-03T18:44:54;48.08;;;16.17;;
70558;SDS011;58108;48.094;11.838;2023-03-03T18:47:21;41.03;;;14.60;;
70558;SDS011;58108;48.094;11.838;2023-03-03T18:55:39;44.13;;;15.32;;
70558;SDS011;58108;48.094;11.838;2023-03-03T19:00:48;42.65;;;14.25;;
70558;SDS011;58108;48.094;11.838;2023-03-03T19:05:51;47.85;;;14.77;;
70558;SDS011;58108;48.094;11.838;2023-03-03T19:10:59;40.30;;;14.63;;
70558;SDS011;58108;48.094;11.838;2023-03-03T19:15:57;46.80;;;16.47;;
70558;SDS011;58108;48.094;11.838;2023-03-03T19:18:23;49.65;;;17.25;;